Terminal Aerodrome Forecast
Issued by NWS

Home | Current Version | Previous Version | Text Only | Print | Product List | Glossary On
Versions: 1 2 3 4 5 6 7 8 9 10 11 12 13 14 15 16 17 18
000
FTUS46 KSGX 012329
TAFONT
TAF
KONT 012329Z 0200/0306 11007KT P6SM VCSH SCT050 BKN080
     FM020200 VRB05KT P6SM VCSH FEW030 BKN070
     FM021200 VRB05KT P6SM -SHRA SCT025 BKN050
     FM022000 24011KT P6SM -SHRA VCTS SCT025CB BKN050
     FM030200 24008KT P6SM VCSH FEW025 BKN070=

USA.gov is the U.S. government's official web portal to all federal, state and local government web resources and services.